Station History

Weather Underground - logo

Station Historical Data
Daily Summary for January 12, 2018 Units:  Metric    English   Both
« Previous Day
Next Day »
Daily Weekly Monthly Yearly Custom
  High: Low: Average:
Temperature: 16.7 °C 8.1 °C 12.3 °C
Dew Point: 12.3 °C 7.3 °C 10.4 °C
Humidity: 96 % 75 % 89 %
Wind Speed: 5.6 km/h 0 km/h 1.1 km/h
Wind Gust: 5.6 km/h - -
Wind:- - SW
Pressure: 1029.7 hPa 1025.6 hPa -
Precipitation: 0 mm    
Historical Graphs
 
 
Tabular Data for January 12, 2018
Time Temperature Dew Point Pressure Wind Wind Speed Wind Gust Humidity Rainfall Rate (Hourly)
00:02 8.4 °C 7.6 °C 1026.6 hPa Calm     95 % 0 mm
00:10 8.4 °C 7.7 °C 1026.6 hPa Calm     95 % 0 mm
00:22 8.3 °C 7.6 °C 1026.6 hPa Calm     95 % 0 mm
00:34 8.2 °C 7.4 °C 1027 hPa Calm     95 % 0 mm
00:42 8.2 °C 7.4 °C 1027 hPa Calm     95 % 0 mm
00:56 8.1 °C 7.3 °C 1027 hPa Calm     95 % 0 mm
01:09 8.7 °C 8.1 °C 1027 hPa Calm     96 % 0 mm
01:27 9.2 °C 8.6 °C 1027 hPa Calm     96 % 0 mm
01:37 9.4 °C 8.8 °C 1027 hPa Calm     96 % 0 mm
01:45 9.6 °C 9 °C 1027 hPa Calm     96 % 0 mm
01:55 9.7 °C 9.1 °C 1026.6 hPa Calm     96 % 0 mm
02:03 9.8 °C 9.2 °C 1027 hPa Calm     96 % 0 mm
02:10 9.9 °C 9.3 °C 1026.6 hPa Calm     96 % 0 mm
02:18 9.9 °C 9.2 °C 1027 hPa Calm     95 % 0 mm
02:27 10 °C 9.4 °C 1027 hPa Calm     96 % 0 mm
02:36 10.2 °C 9.6 °C 1026.6 hPa Calm     96 % 0 mm
02:42 10.2 °C 9.6 °C 1026.6 hPa Calm     96 % 0 mm
02:47 10.3 °C 9.7 °C 1026.6 hPa Calm     96 % 0 mm
02:53 10.3 °C 9.7 °C 1026.6 hPa Calm     96 % 0 mm
03:03 10.3 °C 9.7 °C 1026.3 hPa Calm     96 % 0 mm
03:09 10.2 °C 9.4 °C 1026.3 hPa Calm     95 % 0 mm
03:36 10.2 °C 9.4 °C 1026.6 hPa Calm     95 % 0 mm
03:44 10.2 °C 9.4 °C 1026.3 hPa Calm     95 % 0 mm
03:50 10.2 °C 9.4 °C 1026.6 hPa SSW 1.9 km/h   95 % 0 mm
03:57 10.2 °C 9.4 °C 1026.6 hPa Calm     95 % 0 mm
04:02 10.2 °C 9.4 °C 1026.6 hPa Calm     95 % 0 mm
04:18 10.2 °C 9.4 °C 1026.3 hPa Calm     95 % 0 mm
04:25 10.2 °C 9.4 °C 1026.3 hPa Calm     95 % 0 mm
04:32 10.2 °C 9.6 °C 1026.6 hPa Calm     96 % 0 mm
04:41 10.2 °C 9.6 °C 1026.6 hPa Calm     96 % 0 mm
04:52 10.2 °C 9.6 °C 1026.6 hPa SE 1.9 km/h   96 % 0 mm
04:59 10.2 °C 9.6 °C 1026.6 hPa Calm     96 % 0 mm
05:17 10.2 °C 9.6 °C 1027 hPa Calm     96 % 0 mm
05:23 10.2 °C 9.6 °C 1027 hPa Calm     96 % 0 mm
05:29 10.2 °C 9.6 °C 1027 hPa Calm     96 % 0 mm
05:34 10.2 °C 9.6 °C 1027 hPa Calm     96 % 0 mm
05:42 10.2 °C 9.6 °C 1027 hPa Calm     96 % 0 mm
06:03 10.1 °C 9.5 °C 1027.3 hPa Calm     96 % 0 mm
06:09 10.1 °C 9.5 °C 1027.3 hPa SSE 1.9 km/h   96 % 0 mm
06:15 10.1 °C 9.5 °C 1027.3 hPa Calm     96 % 0 mm
06:21 10.1 °C 9.5 °C 1027.3 hPa SSE 1.9 km/h   96 % 0 mm
06:28 10.1 °C 9.5 °C 1027.3 hPa Calm     96 % 0 mm
06:36 10.1 °C 9.5 °C 1027.3 hPa Calm     96 % 0 mm
06:42 10.1 °C 9.5 °C 1027.7 hPa Calm     96 % 0 mm
06:47 10.1 °C 9.5 °C 1027.7 hPa Calm     96 % 0 mm
06:54 10.1 °C 9.5 °C 1027.7 hPa Calm     96 % 0 mm
06:59 10.2 °C 9.6 °C 1027.7 hPa Calm     96 % 0 mm
07:07 10.2 °C 9.6 °C 1028 hPa Calm     96 % 0 mm
07:16 10.2 °C 9.6 °C 1028 hPa SSE 1.9 km/h 1.9 km/h 96 % 0 mm
07:21 10.2 °C 9.6 °C 1028 hPa Calm     96 % 0 mm
07:38 10.2 °C 9.6 °C 1028.3 hPa ESE 1.9 km/h 1.9 km/h 96 % 0 mm
07:46 10.2 °C 9.6 °C 1028.3 hPa ESE 1.9 km/h 1.9 km/h 96 % 0 mm
07:51 10.3 °C 9.7 °C 1028.3 hPa SSE 1.9 km/h 1.9 km/h 96 % 0 mm
07:56 10.3 °C 9.7 °C 1028.3 hPa East 1.9 km/h 1.9 km/h 96 % 0 mm
08:02 10.3 °C 9.7 °C 1028.3 hPa Calm     96 % 0 mm
08:14 10.4 °C 9.8 °C 1028.7 hPa East 1.9 km/h 1.9 km/h 96 % 0 mm
08:20 10.4 °C 9.8 °C 1028.7 hPa East 1.9 km/h 1.9 km/h 96 % 0 mm
08:26 10.5 °C 9.9 °C 1028.7 hPa East 1.9 km/h   96 % 0 mm
08:34 10.6 °C 9.9 °C 1029 hPa East 3.7 km/h 3.7 km/h 96 % 0 mm
08:44 10.6 °C 10 °C 1029 hPa East 1.9 km/h 1.9 km/h 96 % 0 mm
08:51 10.7 °C 10.1 °C 1029 hPa East 5.6 km/h 5.6 km/h 96 % 0 mm
08:58 10.7 °C 10.1 °C 1029.3 hPa East 3.2 km/h 3.2 km/h 96 % 0 mm
09:09 10.8 °C 10.2 °C 1029.3 hPa Calm     96 % 0 mm
09:16 10.9 °C 10.3 °C 1029.3 hPa East 1.9 km/h 1.9 km/h 96 % 0 mm
09:38 11.2 °C 10.4 °C 1029.7 hPa Calm     95 % 0 mm
09:49 11.3 °C 10.6 °C 1029.7 hPa East 1.9 km/h 1.9 km/h 95 % 0 mm
09:55 11.4 °C 10.7 °C 1029.7 hPa East 5.6 km/h 5.6 km/h 95 % 0 mm
10:07 11.6 °C 10.7 °C 1029.7 hPa East 1.9 km/h 1.9 km/h 94 % 0 mm
10:13 11.8 °C 10.8 °C 1029.7 hPa East 1.9 km/h   94 % 0 mm
10:21 11.9 °C 10.8 °C 1029.3 hPa Calm     93 % 0 mm
10:35 12.3 °C 11.1 °C 1029.3 hPa East 3.7 km/h 3.7 km/h 92 % 0 mm
10:43 12.7 °C 11.3 °C 1029 hPa Calm     91 % 0 mm
10:58 13.6 °C 11.7 °C 1028.7 hPa Calm     88 % 0 mm
11:12 14.6 °C 12.1 °C 1028.3 hPa Calm     85 % 0 mm
11:18 14.7 °C 12.1 °C 1028.3 hPa ESE 3.7 km/h 3.7 km/h 84 % 0 mm
11:23 14.7 °C 12.2 °C 1028.3 hPa SSE 1.9 km/h 1.9 km/h 85 % 0 mm
11:32 14.9 °C 12.2 °C 1028 hPa Calm     84 % 0 mm
11:45 14.9 °C 11.9 °C 1027.7 hPa Calm     82 % 0 mm
11:59 15.1 °C 12 °C 1027.3 hPa WNW 1.6 km/h 1.6 km/h 82 % 0 mm
12:04 15.1 °C 11.8 °C 1027.3 hPa Calm   0.5 km/h 81 % 0 mm
12:09 15.2 °C 11.9 °C 1027 hPa West 1.9 km/h 1.9 km/h 81 % 0 mm
12:19 15.3 °C 12.1 °C 1027 hPa WNW 1.9 km/h 1.9 km/h 81 % 0 mm
12:26 15.3 °C 12.1 °C 1026.6 hPa NW 1.9 km/h 1.9 km/h 81 % 0 mm
12:38 15.4 °C 11.9 °C 1026.6 hPa WNW 1.9 km/h 1.9 km/h 80 % 0 mm
12:45 15.6 °C 12.3 °C 1026.3 hPa NW 1.9 km/h 1.9 km/h 81 % 0 mm
12:58 16.1 °C 12.2 °C 1026.3 hPa North 4.8 km/h 4.8 km/h 78 % 0 mm
13:05 16.2 °C 12.1 °C 1026.3 hPa NW 1.9 km/h 1.9 km/h 77 % 0 mm
13:12 16.6 °C 12.3 °C 1026 hPa SSW 1.9 km/h 1.9 km/h 76 % 0 mm
13:19 16.4 °C 12.2 °C 1026 hPa WNW 1.9 km/h 1.9 km/h 76 % 0 mm
13:27 16.7 °C 12.2 °C 1026 hPa WNW 3.7 km/h 3.7 km/h 75 % 0 mm
13:34 16.4 °C 12 °C 1026 hPa NNW 5.6 km/h 5.6 km/h 75 % 0 mm
13:56 15.9 °C 11.4 °C 1025.6 hPa WNW 5.6 km/h 5.6 km/h 75 % 0 mm
14:12 15.9 °C 11.7 °C 1025.6 hPa North 3.7 km/h 3.7 km/h 76 % 0 mm
14:18 15.9 °C 11.5 °C 1025.6 hPa NE 3.7 km/h 3.7 km/h 75 % 0 mm
14:23 16 °C 11.8 °C 1025.6 hPa NW 1.9 km/h 1.9 km/h 76 % 0 mm
14:44 16.1 °C 11.8 °C 1025.6 hPa NW 1.9 km/h 1.9 km/h 76 % 0 mm
14:49 16 °C 11.8 °C 1025.6 hPa NW 3.2 km/h 3.2 km/h 76 % 0 mm
14:58 15.9 °C 11.7 °C 1025.6 hPa West 3.2 km/h 3.2 km/h 76 % 0 mm
15:03 15.9 °C 11.9 °C 1025.6 hPa Calm     77 % 0 mm
15:40 15.6 °C 11.6 °C 1025.6 hPa WNW 1.9 km/h   77 % 0 mm
15:46 15.5 °C 11.5 °C 1025.6 hPa WNW 1.9 km/h 1.9 km/h 77 % 0 mm
15:51 15.4 °C 11.4 °C 1026 hPa West 1.9 km/h   77 % 0 mm
16:13 15.3 °C 11.3 °C 1026 hPa NW 3.2 km/h 3.2 km/h 77 % 0 mm
16:24 15.2 °C 11.6 °C 1026 hPa NW 3.7 km/h   79 % 0 mm
16:29 15.1 °C 11.5 °C 1026 hPa NW 1.9 km/h 2.1 km/h 79 % 0 mm
16:49 15 °C 11.6 °C 1026 hPa Calm     80 % 0 mm
16:56 14.9 °C 11.5 °C 1026 hPa NW 1.9 km/h 1.9 km/h 80 % 0 mm
17:02 14.9 °C 11.5 °C 1026 hPa NW 1.9 km/h   80 % 0 mm
17:12 14.9 °C 11.3 °C 1026 hPa WNW 1.9 km/h 1.9 km/h 79 % 0 mm
17:23 14.8 °C 11.3 °C 1026 hPa Calm     80 % 0 mm
17:29 14.7 °C 11.4 °C 1026 hPa Calm     81 % 0 mm
17:40 14.6 °C 11.6 °C 1026.3 hPa WNW 1.9 km/h 1.9 km/h 82 % 0 mm
17:50 14.6 °C 11.5 °C 1026.3 hPa Calm   0.2 km/h 82 % 0 mm
17:59 14.5 °C 11.7 °C 1026.3 hPa Calm     83 % 0 mm
18:06 14.4 °C 11.6 °C 1026.3 hPa North 1.9 km/h 1.9 km/h 83 % 0 mm
18:11 14.4 °C 11.6 °C 1026.3 hPa NNW 3.7 km/h 3.7 km/h 83 % 0 mm
18:21 14.4 °C 11.6 °C 1026.3 hPa Calm     83 % 0 mm
18:35 14.2 °C 11.6 °C 1026.3 hPa Calm     84 % 0 mm
18:42 14.2 °C 11.6 °C 1026.3 hPa NW 1.9 km/h 1.9 km/h 84 % 0 mm
18:50 14.2 °C 11.6 °C 1026.3 hPa NW 1.9 km/h 1.9 km/h 84 % 0 mm
18:56 14.2 °C 11.5 °C 1026.3 hPa NW 5.6 km/h 5.6 km/h 84 % 0 mm
19:01 14.1 °C 11.4 °C 1026.3 hPa NW 1.9 km/h 1.9 km/h 84 % 0 mm
19:12 13.9 °C 11.3 °C 1026.3 hPa Calm     84 % 0 mm
19:27 13.8 °C 11.3 °C 1026.3 hPa Calm     85 % 0 mm
19:43 13.7 °C 11.2 °C 1026.3 hPa Calm     85 % 0 mm
20:03 13.6 °C 11.3 °C 1026.3 hPa NNE 1.6 km/h 1.6 km/h 86 % 0 mm
20:11 13.6 °C 11.3 °C 1026.3 hPa Calm     86 % 0 mm
20:20 13.6 °C 11.1 °C 1026.3 hPa Calm     85 % 0 mm
20:27 13.5 °C 11 °C 1026.3 hPa Calm     85 % 0 mm
20:32 13.4 °C 10.9 °C 1026.3 hPa Calm     85 % 0 mm
20:52 13.3 °C 11 °C 1026.3 hPa Calm     86 % 0 mm
21:13 13.1 °C 10.8 °C 1026.3 hPa Calm     86 % 0 mm
21:19 13.1 °C 10.8 °C 1026.3 hPa Calm     86 % 0 mm
21:35 12.7 °C 10.7 °C 1026.3 hPa Calm     88 % 0 mm
21:58 12.6 °C 10.6 °C 1026.3 hPa Calm     88 % 0 mm
22:03 12.3 °C 10.6 °C 1026 hPa Calm     89 % 0 mm
22:11 12.1 °C 10.5 °C 1026 hPa Calm     90 % 0 mm
22:17 12.1 °C 10.4 °C 1026 hPa Calm     90 % 0 mm
22:30 11.9 °C 10.3 °C 1026 hPa Calm     90 % 0 mm
22:36 11.9 °C 10.3 °C 1025.6 hPa Calm     90 % 0 mm
22:41 11.8 °C 10.2 °C 1026 hPa Calm     90 % 0 mm
22:55 11.1 °C 9.8 °C 1025.6 hPa Calm     92 % 0 mm
23:00 11.1 °C 9.8 °C 1025.6 hPa Calm     92 % 0 mm
23:14 11.1 °C 10 °C 1025.6 hPa Calm     93 % 0 mm
23:25 10.8 °C 9.7 °C 1025.6 hPa NW 1.9 km/h 1.9 km/h 93 % 0 mm
23:31 10.7 °C 9.6 °C 1025.6 hPa WNW 1.6 km/h   93 % 0 mm
23:48 10.2 °C 9.3 °C 1025.6 hPa NW 1.9 km/h 1.9 km/h 94 % 0 mm
23:57 10 °C 9.1 °C 1025.6 hPa Calm     94 % 0 mm
Park Place, Exeter, Tulare County, California, USA
Compliments of Weather Underground - 2 mb